createdAt,value
2022-07-31T00:02:09.863Z,1.88
2022-07-31T00:04:38.291Z,1.38
2022-07-31T00:07:07.095Z,1.55
2022-07-31T00:09:53.734Z,1.30
2022-07-31T00:12:23.362Z,2.05
2022-07-31T00:14:52.051Z,1.50
2022-07-31T00:17:20.485Z,1.60
2022-07-31T00:19:48.960Z,1.65
2022-07-31T00:22:17.630Z,1.92
2022-07-31T00:24:46.300Z,1.50
2022-07-31T00:27:14.692Z,1.85
2022-07-31T00:29:43.240Z,1.50
2022-07-31T00:32:11.770Z,1.80
2022-07-31T00:34:40.374Z,1.70
2022-07-31T00:37:10.321Z,1.70
2022-07-31T00:39:38.874Z,1.63
2022-07-31T00:42:20.421Z,1.30
2022-07-31T00:44:49.535Z,1.88
2022-07-31T00:47:18.171Z,1.25
2022-07-31T00:49:53.039Z,1.30
2022-07-31T00:52:21.700Z,1.55
2022-07-31T00:54:50.342Z,1.58
2022-07-31T00:57:19.123Z,1.33
2022-07-31T00:59:47.579Z,1.23
2022-07-31T01:02:16.016Z,1.65
2022-07-31T01:04:45.815Z,1.60
2022-07-31T01:07:14.552Z,1.40
2022-07-31T01:09:42.970Z,1.52
2022-07-31T01:12:23.001Z,1.50
2022-07-31T01:14:57.541Z,1.80
2022-07-31T01:17:28.661Z,1.67
2022-07-31T01:19:57.302Z,1.30
2022-07-31T01:23:13.621Z,1.92
2022-07-31T01:26:25.461Z,1.40
2022-07-31T01:29:29.516Z,1.75
2022-07-31T01:32:18.203Z,1.50
2022-07-31T01:34:50.232Z,1.73
2022-07-31T01:37:31.595Z,1.63
2022-07-31T01:40:14.999Z,1.50
2022-07-31T01:42:45.023Z,1.33
2022-07-31T01:45:14.671Z,1.65
2022-07-31T01:47:43.092Z,2.30
2022-07-31T01:50:42.816Z,1.40
2022-07-31T01:53:01.241Z,2.22
2022-07-31T01:55:30.013Z,1.98
2022-07-31T01:57:58.601Z,1.65
2022-07-31T02:00:34.268Z,2.03
2022-07-31T02:03:09.398Z,1.83
2022-07-31T02:05:42.082Z,1.88
2022-07-31T02:08:12.433Z,1.50
2022-07-31T02:10:45.713Z,1.50
2022-07-31T02:13:14.665Z,1.65
2022-07-31T02:15:43.142Z,2.00
2022-07-31T02:18:12.982Z,1.55
2022-07-31T02:20:41.762Z,1.60
2022-07-31T02:23:12.426Z,1.17
2022-07-31T02:25:41.182Z,1.90
2022-07-31T02:28:13.585Z,1.60
2022-07-31T02:30:44.411Z,2.13
2022-07-31T02:33:20.424Z,1.25
2022-07-31T02:35:51.751Z,1.60
2022-07-31T02:38:23.893Z,1.50
2022-07-31T02:41:00.549Z,1.30
2022-07-31T02:43:33.471Z,1.70
2022-07-31T02:46:08.070Z,1.23
2022-07-31T02:48:37.545Z,1.63
2022-07-31T02:51:09.715Z,1.60
2022-07-31T02:53:38.696Z,1.58
2022-07-31T02:56:11.162Z,1.50
2022-07-31T02:58:42.835Z,1.88
2022-07-31T03:01:20.457Z,1.60
2022-07-31T03:03:50.493Z,1.60
2022-07-31T03:06:19.545Z,1.73
2022-07-31T03:08:48.753Z,1.65
2022-07-31T03:11:21.763Z,1.70
2022-07-31T03:13:50.403Z,1.50
2022-07-31T03:16:18.893Z,1.85
2022-07-31T03:18:47.622Z,1.90
2022-07-31T03:21:16.192Z,1.38
2022-07-31T03:23:44.752Z,1.65
2022-07-31T03:26:19.485Z,1.45
2022-07-31T03:28:49.088Z,1.30
2022-07-31T03:31:17.507Z,1.60
2022-07-31T03:33:46.716Z,1.40
2022-07-31T03:36:17.313Z,1.50
2022-07-31T03:38:50.479Z,1.73
2022-07-31T03:41:37.888Z,1.50
2022-07-31T03:44:06.423Z,1.85
2022-07-31T03:46:35.363Z,1.75
2022-07-31T03:49:04.931Z,2.10
2022-07-31T03:51:35.543Z,1.75
2022-07-31T03:54:04.193Z,2.17
2022-07-31T03:56:52.703Z,1.45
2022-07-31T03:59:21.687Z,1.92
2022-07-31T04:01:58.187Z,1.85
2022-07-31T04:04:47.442Z,1.45
2022-07-31T04:07:16.277Z,1.60
2022-07-31T04:09:44.873Z,2.00
2022-07-31T04:12:15.234Z,1.65
2022-07-31T04:14:44.465Z,1.33
2022-07-31T04:17:13.199Z,1.50
2022-07-31T04:19:42.928Z,1.30
2022-07-31T04:22:11.871Z,1.30
2022-07-31T04:24:41.350Z,1.27
2022-07-31T04:27:28.052Z,1.20
2022-07-31T04:29:57.802Z,1.50
2022-07-31T04:32:26.322Z,1.55
2022-07-31T04:34:59.918Z,1.42
2022-07-31T04:37:29.371Z,1.35
2022-07-31T04:39:59.341Z,1.23
2022-07-31T04:42:28.200Z,1.45
2022-07-31T04:45:02.901Z,1.10
2022-07-31T04:47:32.490Z,0.93
2022-07-31T04:50:01.319Z,1.60
2022-07-31T04:52:29.860Z,1.30
2022-07-31T04:55:05.620Z,1.25
2022-07-31T04:57:34.140Z,1.35
2022-07-31T05:00:04.944Z,1.40
2022-07-31T05:02:35.280Z,1.50
2022-07-31T05:05:04.422Z,1.40
2022-07-31T05:07:37.021Z,1.45
2022-07-31T05:10:31.410Z,0.95
2022-07-31T05:13:00.330Z,0.98
2022-07-31T05:15:28.870Z,1.20
2022-07-31T05:17:58.555Z,1.58
2022-07-31T05:20:45.479Z,1.35
2022-07-31T05:23:30.070Z,1.33
2022-07-31T05:26:18.153Z,1.15
2022-07-31T05:28:47.600Z,1.80
2022-07-31T05:31:18.452Z,1.33
2022-07-31T05:33:48.411Z,1.35
2022-07-31T05:36:19.104Z,1.15
2022-07-31T05:38:47.821Z,1.20
2022-07-31T05:41:34.741Z,1.02
2022-07-31T05:44:29.422Z,1.10
2022-07-31T05:49:27.247Z,1.17
2022-07-31T05:51:57.332Z,1.20
2022-07-31T05:54:25.970Z,1.42
2022-07-31T05:57:12.900Z,1.30
2022-07-31T06:00:02.007Z,1.25
2022-07-31T06:02:40.545Z,1.10
2022-07-31T06:05:23.784Z,1.33
2022-07-31T06:07:52.606Z,1.15
2022-07-31T06:10:23.264Z,1.13
2022-07-31T06:12:52.836Z,1.17
2022-07-31T06:15:21.625Z,1.20
2022-07-31T06:17:51.504Z,0.75
2022-07-31T06:20:28.928Z,1.02
2022-07-31T06:22:57.565Z,1.40
2022-07-31T06:25:34.967Z,1.25
2022-07-31T06:28:10.547Z,1.50
2022-07-31T06:30:42.286Z,1.27
2022-07-31T06:33:36.647Z,1.13
2022-07-31T06:35:59.828Z,1.10
2022-07-31T06:38:51.225Z,1.02
2022-07-31T06:41:48.766Z,1.20
2022-07-31T06:44:29.795Z,1.58
2022-07-31T06:47:15.743Z,1.25
2022-07-31T06:50:06.175Z,1.60
2022-07-31T06:52:48.428Z,1.77
2022-07-31T06:55:18.440Z,1.73
2022-07-31T06:57:46.935Z,2.17
2022-07-31T07:00:20.524Z,2.45
2022-07-31T07:02:52.567Z,2.60
2022-07-31T07:05:21.975Z,2.38
2022-07-31T07:07:53.866Z,2.10
2022-07-31T07:10:22.687Z,2.22
2022-07-31T07:13:00.159Z,1.98
2022-07-31T07:15:33.117Z,2.17
2022-07-31T07:18:01.634Z,2.22
2022-07-31T07:20:51.425Z,1.58
2022-07-31T07:23:20.355Z,1.63
2022-07-31T07:26:15.474Z,1.63
2022-07-31T07:28:44.345Z,1.35
2022-07-31T07:31:12.845Z,2.03
2022-07-31T07:33:43.109Z,2.20
2022-07-31T07:36:22.937Z,2.45
2022-07-31T07:39:16.134Z,1.63
2022-07-31T07:41:45.511Z,2.25
2022-07-31T07:44:13.973Z,1.83
2022-07-31T07:46:42.853Z,1.70
2022-07-31T07:49:15.211Z,1.83
2022-07-31T07:51:58.471Z,1.75
2022-07-31T07:54:43.232Z,1.80
2022-07-31T07:57:18.978Z,1.83
2022-07-31T08:00:11.127Z,1.90
2022-07-31T08:03:47.234Z,2.00
2022-07-31T08:05:39.785Z,1.77
2022-07-31T08:08:08.618Z,1.60
2022-07-31T08:10:57.315Z,1.92
2022-07-31T08:13:40.871Z,1.13
2022-07-31T08:16:29.894Z,1.67
2022-07-31T08:19:01.324Z,1.23
2022-07-31T08:21:30.184Z,1.27
2022-07-31T08:23:58.685Z,1.55
2022-07-31T08:26:28.299Z,1.40
2022-07-31T08:28:58.324Z,1.98
2022-07-31T08:31:34.036Z,1.48
2022-07-31T08:34:31.364Z,1.60
2022-07-31T08:37:51.815Z,2.42
2022-07-31T08:39:55.586Z,1.52
2022-07-31T08:42:24.986Z,1.85
2022-07-31T08:44:53.894Z,1.60
2022-07-31T08:47:27.999Z,1.50
2022-07-31T08:50:00.035Z,1.33
2022-07-31T08:52:31.405Z,1.33
2022-07-31T08:55:24.825Z,1.83
2022-07-31T08:58:12.155Z,2.15
2022-07-31T09:00:43.434Z,2.20
2022-07-31T09:03:12.218Z,2.03
2022-07-31T09:05:54.675Z,2.00
2022-07-31T09:08:24.188Z,2.08
2022-07-31T09:11:09.485Z,1.77
2022-07-31T09:14:01.802Z,1.75
2022-07-31T09:16:48.406Z,1.77
2022-07-31T09:19:52.152Z,2.30
2022-07-31T09:22:27.227Z,1.63
2022-07-31T09:25:13.257Z,1.60
2022-07-31T09:27:42.035Z,1.55
2022-07-31T09:30:12.126Z,1.88
2022-07-31T09:33:22.226Z,1.50
2022-07-31T09:36:10.194Z,1.30
2022-07-31T09:38:42.424Z,1.25
2022-07-31T09:42:00.232Z,1.58
2022-07-31T09:45:06.145Z,1.60
2022-07-31T09:47:37.974Z,1.30
2022-07-31T09:50:08.703Z,1.70
2022-07-31T09:52:37.500Z,1.60
2022-07-31T09:55:15.678Z,1.60
2022-07-31T09:57:54.353Z,1.20
2022-07-31T10:00:23.528Z,1.52
2022-07-31T10:02:57.011Z,1.48
2022-07-31T10:05:28.390Z,1.20
2022-07-31T10:08:01.946Z,1.17
2022-07-31T10:10:52.208Z,1.70
2022-07-31T10:13:46.845Z,1.50
2022-07-31T10:16:15.889Z,1.35
2022-07-31T10:19:00.401Z,1.45
2022-07-31T10:21:54.492Z,1.47
2022-07-31T10:24:30.248Z,1.25
2022-07-31T10:27:03.833Z,1.70
2022-07-31T10:29:39.828Z,1.83
2022-07-31T10:32:08.917Z,1.42
2022-07-31T10:34:43.268Z,1.48
2022-07-31T10:38:06.655Z,1.55
2022-07-31T10:41:18.290Z,1.65
2022-07-31T10:43:54.984Z,1.35
2022-07-31T10:46:33.574Z,1.50
2022-07-31T10:49:33.749Z,1.55
2022-07-31T10:52:31.757Z,1.85
2022-07-31T10:55:25.856Z,1.38
2022-07-31T10:58:19.851Z,1.98
2022-07-31T11:01:09.715Z,1.65
2022-07-31T11:03:47.215Z,1.67
2022-07-31T11:06:25.025Z,1.50
2022-07-31T11:08:58.547Z,1.50
2022-07-31T11:11:50.985Z,2.10
2022-07-31T11:14:41.508Z,1.50
2022-07-31T11:18:25.198Z,1.70
2022-07-31T11:20:34.260Z,1.65
2022-07-31T11:23:08.854Z,1.42
2022-07-31T11:25:37.874Z,1.65
2022-07-31T11:28:25.045Z,1.50
2022-07-31T11:31:01.364Z,1.65
2022-07-31T11:33:41.851Z,2.00
2022-07-31T11:36:21.098Z,1.52
2022-07-31T11:38:52.285Z,1.58
2022-07-31T11:41:24.272Z,1.30
2022-07-31T11:43:53.164Z,1.52
2022-07-31T11:46:39.958Z,1.52
2022-07-31T11:49:08.539Z,1.40
2022-07-31T11:51:37.284Z,1.02
2022-07-31T11:54:05.905Z,1.98
2022-07-31T11:56:34.370Z,1.55
2022-07-31T11:59:03.094Z,1.20
2022-07-31T12:01:34.447Z,1.25
2022-07-31T12:04:08.801Z,1.30
2022-07-31T12:06:39.732Z,1.80
2022-07-31T12:10:02.749Z,1.35
2022-07-31T12:11:58.200Z,0.98
2022-07-31T12:14:37.054Z,1.35
2022-07-31T12:17:07.897Z,1.30
2022-07-31T12:19:38.764Z,1.42
2022-07-31T12:22:20.556Z,2.25
2022-07-31T12:24:49.054Z,1.20
2022-07-31T12:27:18.725Z,1.67
2022-07-31T12:29:47.209Z,1.52
2022-07-31T12:32:15.654Z,1.27
2022-07-31T12:34:45.185Z,1.20
2022-07-31T12:37:19.612Z,1.63
2022-07-31T12:40:00.194Z,1.10
2022-07-31T12:42:35.130Z,2.13
2022-07-31T12:45:17.967Z,1.73
2022-07-31T12:47:51.190Z,1.70
2022-07-31T12:50:25.834Z,1.45
2022-07-31T12:52:54.957Z,1.15
2022-07-31T12:55:23.623Z,1.40
2022-07-31T12:57:52.652Z,1.40
2022-07-31T13:00:25.384Z,2.08
2022-07-31T13:02:55.545Z,1.42
2022-07-31T13:05:24.266Z,1.58
2022-07-31T13:07:53.184Z,1.35
2022-07-31T13:10:24.753Z,1.73
2022-07-31T13:12:53.992Z,1.40
2022-07-31T13:15:30.040Z,1.42
2022-07-31T13:18:02.201Z,2.03
2022-07-31T13:20:31.393Z,1.50
2022-07-31T13:23:00.005Z,1.27
2022-07-31T13:25:31.675Z,1.30
2022-07-31T13:28:00.568Z,1.37
2022-07-31T13:30:29.168Z,1.50
2022-07-31T13:32:57.677Z,1.40
2022-07-31T13:35:28.451Z,1.63
2022-07-31T13:37:57.510Z,1.33
2022-07-31T13:40:44.865Z,1.67
2022-07-31T13:43:13.710Z,1.50
2022-07-31T13:45:42.263Z,1.30
2022-07-31T13:48:10.697Z,1.42
2022-07-31T13:50:42.255Z,1.73
2022-07-31T13:53:11.015Z,1.02
2022-07-31T13:55:39.472Z,1.58
2022-07-31T13:58:09.086Z,1.25
2022-07-31T14:00:37.551Z,1.40
2022-07-31T14:03:05.972Z,1.13
2022-07-31T14:05:39.940Z,1.25
2022-07-31T14:08:33.162Z,1.15
2022-07-31T14:10:58.273Z,1.10
2022-07-31T14:13:26.944Z,1.13
2022-07-31T14:15:55.645Z,1.40
2022-07-31T14:18:24.862Z,1.35
2022-07-31T14:20:53.265Z,1.00
2022-07-31T14:23:34.082Z,1.25
2022-07-31T14:28:34.116Z,0.88
2022-07-31T14:31:02.647Z,1.00
2022-07-31T14:33:31.401Z,1.30
2022-07-31T14:36:00.116Z,2.03
2022-07-31T14:38:28.691Z,0.82
2022-07-31T14:40:57.455Z,0.98
2022-07-31T14:43:25.964Z,1.90
2022-07-31T14:45:54.479Z,1.00
2022-07-31T14:48:23.498Z,0.88
2022-07-31T14:50:52.107Z,0.98
2022-07-31T14:53:20.698Z,1.23
2022-07-31T14:55:49.671Z,1.02
2022-07-31T14:58:18.358Z,1.30
2022-07-31T15:00:47.071Z,1.35
2022-07-31T15:03:15.957Z,1.10
2022-07-31T15:06:41.512Z,1.25
2022-07-31T15:08:33.628Z,1.05
2022-07-31T15:11:03.021Z,1.08
2022-07-31T15:13:34.019Z,1.17
2022-07-31T15:16:05.537Z,1.48
2022-07-31T15:18:34.119Z,1.25
2022-07-31T15:21:02.655Z,1.40
2022-07-31T15:23:35.960Z,1.38
2022-07-31T15:26:05.123Z,1.77
2022-07-31T15:28:34.949Z,1.38
2022-07-31T15:31:04.417Z,1.50
2022-07-31T15:33:33.439Z,1.00
2022-07-31T15:36:02.989Z,1.45
2022-07-31T15:38:31.818Z,1.20
2022-07-31T15:41:00.699Z,1.38
2022-07-31T15:43:29.717Z,1.13
2022-07-31T15:46:01.282Z,1.27
2022-07-31T15:48:29.928Z,1.33
2022-07-31T15:50:58.761Z,0.98
2022-07-31T15:53:32.835Z,1.20
2022-07-31T15:56:08.381Z,1.23
2022-07-31T15:58:37.017Z,1.58
2022-07-31T16:01:05.687Z,1.50
2022-07-31T16:03:50.492Z,1.20
2022-07-31T16:06:28.001Z,1.35
2022-07-31T16:09:01.259Z,1.13
2022-07-31T16:12:03.563Z,1.02
2022-07-31T16:14:18.838Z,1.35
2022-07-31T16:16:47.478Z,1.27
2022-07-31T16:19:20.627Z,1.20
2022-07-31T16:21:49.748Z,1.40
2022-07-31T16:24:20.319Z,1.80
2022-07-31T16:26:50.204Z,1.38
2022-07-31T16:29:57.783Z,1.27
2022-07-31T16:32:10.479Z,1.05
2022-07-31T16:34:39.942Z,1.17
2022-07-31T16:37:08.575Z,1.23
2022-07-31T16:39:37.348Z,1.35
2022-07-31T16:42:06.270Z,1.23
2022-07-31T16:44:37.379Z,1.20
2022-07-31T16:47:07.102Z,1.00
2022-07-31T16:49:39.443Z,1.30
2022-07-31T16:52:08.350Z,1.15
2022-07-31T16:54:37.005Z,1.50
2022-07-31T16:57:05.786Z,5.38
2022-07-31T16:59:35.087Z,20.00
2022-07-31T17:02:25.028Z,17.13
2022-07-31T17:04:54.258Z,5.70
2022-07-31T17:07:23.656Z,3.28
2022-07-31T17:09:52.218Z,2.47
2022-07-31T17:12:21.346Z,2.25
2022-07-31T17:14:51.178Z,1.52
2022-07-31T17:17:20.995Z,1.77
2022-07-31T17:19:55.150Z,1.38
2022-07-31T17:22:24.070Z,1.17
2022-07-31T17:24:53.303Z,1.23
2022-07-31T17:27:22.759Z,1.08
2022-07-31T17:29:51.734Z,1.70
2022-07-31T17:32:20.533Z,1.55
2022-07-31T17:34:49.966Z,1.52
2022-07-31T17:37:19.100Z,1.50
2022-07-31T17:39:47.935Z,1.30
2022-07-31T17:42:18.178Z,1.35
2022-07-31T17:44:55.184Z,1.77
2022-07-31T17:47:25.993Z,1.60
2022-07-31T17:49:54.982Z,1.40
2022-07-31T17:52:23.968Z,1.30
2022-07-31T17:54:53.844Z,1.30
2022-07-31T17:57:29.753Z,1.20
2022-07-31T17:59:59.133Z,1.42
2022-07-31T18:02:28.360Z,1.30
2022-07-31T18:04:57.431Z,1.20
2022-07-31T18:07:26.473Z,1.50
2022-07-31T18:09:57.671Z,1.48
2022-07-31T18:12:26.406Z,1.60
2022-07-31T18:14:55.007Z,1.45
2022-07-31T18:17:24.167Z,1.63
2022-07-31T18:19:52.857Z,1.50
2022-07-31T18:22:21.428Z,1.60
2022-07-31T18:24:50.561Z,1.48
2022-07-31T18:27:19.147Z,2.20
2022-07-31T18:29:55.729Z,1.60
2022-07-31T18:32:25.264Z,1.58
2022-07-31T18:34:53.879Z,1.67
2022-07-31T18:37:22.556Z,1.50
2022-07-31T18:39:51.657Z,1.58
2022-07-31T18:42:20.630Z,1.50
2022-07-31T18:44:49.261Z,1.98
2022-07-31T18:47:18.358Z,1.65
2022-07-31T18:50:58.701Z,1.58
2022-07-31T18:52:36.137Z,2.13
2022-07-31T18:55:05.066Z,1.40
2022-07-31T18:57:33.748Z,1.98
2022-07-31T19:00:02.929Z,1.80
2022-07-31T19:02:31.509Z,1.95
2022-07-31T19:05:00.558Z,1.45
2022-07-31T19:07:30.333Z,2.10
2022-07-31T19:10:08.085Z,1.95
2022-07-31T19:12:37.100Z,1.85
2022-07-31T19:15:06.897Z,1.58
2022-07-31T19:17:44.066Z,2.30
2022-07-31T19:20:40.407Z,1.88
2022-07-31T19:23:02.586Z,1.90
2022-07-31T19:25:59.433Z,1.67
2022-07-31T19:28:27.174Z,1.45
2022-07-31T19:30:56.666Z,1.88
2022-07-31T19:33:25.585Z,2.05
2022-07-31T19:36:00.747Z,2.03
2022-07-31T19:38:31.847Z,1.92
2022-07-31T19:41:00.887Z,2.05
2022-07-31T19:43:29.719Z,2.60
2022-07-31T19:46:10.550Z,2.83
2022-07-31T19:48:45.562Z,2.10
2022-07-31T19:51:16.676Z,2.28
2022-07-31T19:53:45.471Z,1.80
2022-07-31T19:56:20.100Z,1.90
2022-07-31T19:58:50.220Z,1.75
2022-07-31T20:01:22.056Z,2.30
2022-07-31T20:03:51.147Z,2.20
2022-07-31T20:06:19.861Z,2.53
2022-07-31T20:08:49.289Z,2.00
2022-07-31T20:11:18.037Z,2.08
2022-07-31T20:13:46.605Z,1.80
2022-07-31T20:16:16.018Z,2.35
2022-07-31T20:18:44.736Z,2.30
2022-07-31T20:21:13.317Z,2.08
2022-07-31T20:23:42.099Z,2.28
2022-07-31T20:26:12.847Z,2.72
2022-07-31T20:28:41.647Z,2.78
2022-07-31T20:31:15.996Z,2.45
2022-07-31T20:33:56.887Z,2.53
2022-07-31T20:36:28.870Z,2.03
2022-07-31T20:38:59.062Z,1.92
2022-07-31T20:41:28.686Z,2.15
2022-07-31T20:43:57.377Z,1.85
2022-07-31T20:46:28.226Z,2.22
2022-07-31T20:48:57.646Z,2.60
2022-07-31T20:51:26.266Z,2.28
2022-07-31T20:53:55.216Z,2.38
2022-07-31T20:56:23.966Z,2.13
2022-07-31T20:58:52.549Z,2.00
2022-07-31T21:01:22.136Z,2.38
2022-07-31T21:03:50.696Z,2.05
2022-07-31T21:06:22.221Z,1.75
2022-07-31T21:08:51.026Z,2.15
2022-07-31T21:11:20.494Z,1.92
2022-07-31T21:13:49.086Z,1.95
2022-07-31T21:16:19.478Z,2.35
2022-07-31T21:18:50.766Z,2.65
2022-07-31T21:21:19.308Z,2.35
2022-07-31T21:23:48.893Z,2.45
2022-07-31T21:26:17.815Z,1.70
2022-07-31T21:28:48.468Z,1.80
2022-07-31T21:31:17.615Z,1.98
2022-07-31T21:33:47.056Z,2.03
2022-07-31T21:36:15.726Z,2.10
2022-07-31T21:38:44.965Z,1.90
2022-07-31T21:41:13.886Z,2.08
2022-07-31T21:43:58.649Z,2.25
2022-07-31T21:46:29.527Z,1.80
2022-07-31T21:48:58.558Z,1.95
2022-07-31T21:51:27.585Z,1.90
2022-07-31T21:53:56.387Z,1.88
2022-07-31T21:56:24.926Z,1.77
2022-07-31T21:58:53.485Z,1.92
2022-07-31T22:01:22.454Z,1.88
2022-07-31T22:03:51.176Z,1.55
2022-07-31T22:06:37.956Z,1.83
2022-07-31T22:09:06.637Z,2.08
2022-07-31T22:11:36.169Z,2.20
2022-07-31T22:14:04.756Z,1.98
2022-07-31T22:16:33.615Z,2.80
2022-07-31T22:19:02.536Z,3.35
2022-07-31T22:21:31.436Z,2.60
2022-07-31T22:24:00.676Z,2.25
2022-07-31T22:26:32.240Z,2.10
2022-07-31T22:29:01.394Z,2.33
2022-07-31T22:31:30.054Z,2.28
2022-07-31T22:33:58.755Z,2.25
2022-07-31T22:36:27.482Z,2.60
2022-07-31T22:38:56.221Z,2.28
2022-07-31T22:41:25.023Z,2.88
2022-07-31T22:44:13.853Z,2.47
2022-07-31T22:46:43.181Z,2.50
2022-07-31T22:49:12.075Z,2.40
2022-07-31T22:51:43.706Z,2.30
2022-07-31T22:54:15.586Z,2.40
2022-07-31T22:56:44.044Z,1.88
2022-07-31T22:59:12.761Z,2.20
2022-07-31T23:01:41.882Z,1.85
2022-07-31T23:04:10.479Z,2.35
2022-07-31T23:06:39.022Z,1.80
2022-07-31T23:09:07.962Z,1.65
2022-07-31T23:11:36.481Z,2.10
2022-07-31T23:14:05.233Z,2.08
2022-07-31T23:16:34.033Z,2.47
2022-07-31T23:19:02.923Z,2.45
2022-07-31T23:21:31.641Z,2.05
2022-07-31T23:24:00.397Z,2.05
2022-07-31T23:26:29.588Z,1.90
2022-07-31T23:28:58.097Z,1.98
2022-07-31T23:31:27.123Z,1.95
2022-07-31T23:33:55.752Z,1.88
2022-07-31T23:36:24.335Z,1.73
2022-07-31T23:38:53.172Z,1.65
2022-07-31T23:41:54.012Z,2.15
2022-07-31T23:44:25.102Z,2.13
2022-07-31T23:46:53.897Z,1.75
2022-07-31T23:49:23.248Z,1.50
2022-07-31T23:51:52.082Z,2.42
2022-07-31T23:54:20.643Z,1.85
2022-07-31T23:56:49.195Z,1.88
2022-07-31T23:59:18.102Z,2.38
